sensor_id;sensor_type;location;lat;lon;timestamp;P1;durP1;ratioP1;P2;durP2;ratioP2
59271;SDS011;45043;51.068;7.026;2023-07-31T00:01:12;9.57;;;4.43;;
59271;SDS011;45043;51.068;7.026;2023-07-31T00:04:12;8.47;;;4.77;;
59271;SDS011;45043;51.068;7.026;2023-07-31T00:07:13;9.37;;;4.83;;
59271;SDS011;45043;51.068;7.026;2023-07-31T00:10:13;8.73;;;4.40;;
59271;SDS011;45043;51.068;7.026;2023-07-31T00:13:14;6.83;;;4.27;;
59271;SDS011;45043;51.068;7.026;2023-07-31T00:16:15;6.17;;;3.90;;
59271;SDS011;45043;51.068;7.026;2023-07-31T00:19:15;9.60;;;4.27;;
59271;SDS011;45043;51.068;7.026;2023-07-31T00:22:16;10.07;;;4.90;;
59271;SDS011;45043;51.068;7.026;2023-07-31T00:25:16;7.87;;;4.73;;
59271;SDS011;45043;51.068;7.026;2023-07-31T00:28:17;6.87;;;4.10;;
59271;SDS011;45043;51.068;7.026;2023-07-31T00:31:17;8.57;;;4.20;;
59271;SDS011;45043;51.068;7.026;2023-07-31T00:34:18;8.00;;;4.37;;
59271;SDS011;45043;51.068;7.026;2023-07-31T00:37:18;7.23;;;4.00;;
59271;SDS011;45043;51.068;7.026;2023-07-31T00:40:19;7.87;;;4.20;;
59271;SDS011;45043;51.068;7.026;2023-07-31T00:43:19;9.00;;;3.90;;
59271;SDS011;45043;51.068;7.026;2023-07-31T00:46:20;7.87;;;4.50;;
59271;SDS011;45043;51.068;7.026;2023-07-31T00:49:22;6.57;;;3.77;;
59271;SDS011;45043;51.068;7.026;2023-07-31T00:52:23;6.83;;;4.57;;
59271;SDS011;45043;51.068;7.026;2023-07-31T00:55:23;7.27;;;4.40;;
59271;SDS011;45043;51.068;7.026;2023-07-31T00:58:24;7.77;;;4.67;;
59271;SDS011;45043;51.068;7.026;2023-07-31T01:01:26;6.97;;;3.87;;
59271;SDS011;45043;51.068;7.026;2023-07-31T01:04:26;8.30;;;4.47;;
59271;SDS011;45043;51.068;7.026;2023-07-31T01:10:37;5.90;;;4.13;;
59271;SDS011;45043;51.068;7.026;2023-07-31T01:13:46;6.67;;;3.70;;
59271;SDS011;45043;51.068;7.026;2023-07-31T01:16:47;7.13;;;4.23;;
59271;SDS011;45043;51.068;7.026;2023-07-31T01:19:48;7.03;;;4.50;;
59271;SDS011;45043;51.068;7.026;2023-07-31T01:26:36;7.50;;;3.53;;
59271;SDS011;45043;51.068;7.026;2023-07-31T01:29:41;7.33;;;4.10;;
59271;SDS011;45043;51.068;7.026;2023-07-31T01:32:55;6.47;;;4.07;;
59271;SDS011;45043;51.068;7.026;2023-07-31T01:35:57;7.40;;;4.03;;
59271;SDS011;45043;51.068;7.026;2023-07-31T01:38:58;6.77;;;4.17;;
59271;SDS011;45043;51.068;7.026;2023-07-31T01:42:00;7.47;;;3.93;;
59271;SDS011;45043;51.068;7.026;2023-07-31T01:45:01;6.83;;;3.70;;
59271;SDS011;45043;51.068;7.026;2023-07-31T01:48:02;9.53;;;4.30;;
59271;SDS011;45043;51.068;7.026;2023-07-31T01:51:02;10.47;;;4.13;;
59271;SDS011;45043;51.068;7.026;2023-07-31T01:54:03;8.33;;;4.13;;
59271;SDS011;45043;51.068;7.026;2023-07-31T01:57:03;8.97;;;4.30;;
59271;SDS011;45043;51.068;7.026;2023-07-31T02:00:04;9.43;;;4.73;;
59271;SDS011;45043;51.068;7.026;2023-07-31T02:03:12;8.00;;;4.17;;
59271;SDS011;45043;51.068;7.026;2023-07-31T02:06:12;7.17;;;3.93;;
59271;SDS011;45043;51.068;7.026;2023-07-31T02:09:12;6.77;;;4.20;;
59271;SDS011;45043;51.068;7.026;2023-07-31T02:12:13;8.23;;;4.20;;
59271;SDS011;45043;51.068;7.026;2023-07-31T02:15:14;6.87;;;4.23;;
59271;SDS011;45043;51.068;7.026;2023-07-31T02:18:14;6.17;;;3.43;;
59271;SDS011;45043;51.068;7.026;2023-07-31T02:21:15;5.77;;;3.63;;
59271;SDS011;45043;51.068;7.026;2023-07-31T02:24:15;8.30;;;4.13;;
59271;SDS011;45043;51.068;7.026;2023-07-31T02:27:16;6.60;;;3.77;;
59271;SDS011;45043;51.068;7.026;2023-07-31T02:30:16;8.90;;;4.20;;
59271;SDS011;45043;51.068;7.026;2023-07-31T02:33:18;7.73;;;4.10;;
59271;SDS011;45043;51.068;7.026;2023-07-31T02:36:20;9.57;;;4.00;;
59271;SDS011;45043;51.068;7.026;2023-07-31T02:39:20;8.73;;;3.80;;
59271;SDS011;45043;51.068;7.026;2023-07-31T02:42:21;7.07;;;3.80;;
59271;SDS011;45043;51.068;7.026;2023-07-31T02:45:21;6.63;;;3.87;;
59271;SDS011;45043;51.068;7.026;2023-07-31T02:48:22;6.17;;;3.90;;
59271;SDS011;45043;51.068;7.026;2023-07-31T02:51:22;9.37;;;5.53;;
59271;SDS011;45043;51.068;7.026;2023-07-31T02:54:23;8.67;;;4.30;;
59271;SDS011;45043;51.068;7.026;2023-07-31T02:57:23;7.47;;;4.37;;
59271;SDS011;45043;51.068;7.026;2023-07-31T03:00:24;8.30;;;3.93;;
59271;SDS011;45043;51.068;7.026;2023-07-31T03:03:24;6.87;;;4.33;;
59271;SDS011;45043;51.068;7.026;2023-07-31T03:06:25;8.73;;;4.50;;
59271;SDS011;45043;51.068;7.026;2023-07-31T03:09:27;6.70;;;4.17;;
59271;SDS011;45043;51.068;7.026;2023-07-31T03:12:28;9.30;;;4.50;;
59271;SDS011;45043;51.068;7.026;2023-07-31T03:15:28;9.73;;;4.60;;
59271;SDS011;45043;51.068;7.026;2023-07-31T03:18:29;10.90;;;4.40;;
59271;SDS011;45043;51.068;7.026;2023-07-31T03:21:29;6.20;;;3.77;;
59271;SDS011;45043;51.068;7.026;2023-07-31T03:24:30;9.17;;;4.40;;
59271;SDS011;45043;51.068;7.026;2023-07-31T03:27:30;7.00;;;4.27;;
59271;SDS011;45043;51.068;7.026;2023-07-31T03:30:31;10.10;;;4.83;;
59271;SDS011;45043;51.068;7.026;2023-07-31T03:33:32;10.00;;;4.60;;
59271;SDS011;45043;51.068;7.026;2023-07-31T03:36:33;7.83;;;4.70;;
59271;SDS011;45043;51.068;7.026;2023-07-31T03:39:33;11.57;;;4.63;;
59271;SDS011;45043;51.068;7.026;2023-07-31T03:42:33;7.07;;;4.30;;
59271;SDS011;45043;51.068;7.026;2023-07-31T03:45:36;8.27;;;4.77;;
59271;SDS011;45043;51.068;7.026;2023-07-31T03:48:36;7.73;;;4.30;;
59271;SDS011;45043;51.068;7.026;2023-07-31T03:51:37;8.20;;;4.80;;
59271;SDS011;45043;51.068;7.026;2023-07-31T03:54:38;9.30;;;4.73;;
59271;SDS011;45043;51.068;7.026;2023-07-31T03:57:38;9.13;;;4.77;;
59271;SDS011;45043;51.068;7.026;2023-07-31T04:00:39;7.10;;;4.47;;
59271;SDS011;45043;51.068;7.026;2023-07-31T04:03:40;7.63;;;4.17;;
59271;SDS011;45043;51.068;7.026;2023-07-31T04:06:40;8.87;;;4.57;;
59271;SDS011;45043;51.068;7.026;2023-07-31T04:09:41;10.27;;;4.63;;
59271;SDS011;45043;51.068;7.026;2023-07-31T04:12:41;8.23;;;5.00;;
59271;SDS011;45043;51.068;7.026;2023-07-31T04:15:42;8.63;;;4.37;;
59271;SDS011;45043;51.068;7.026;2023-07-31T04:18:42;8.77;;;4.40;;
59271;SDS011;45043;51.068;7.026;2023-07-31T04:21:43;6.97;;;4.33;;
59271;SDS011;45043;51.068;7.026;2023-07-31T04:24:43;11.17;;;4.50;;
59271;SDS011;45043;51.068;7.026;2023-07-31T04:27:44;9.10;;;5.20;;
59271;SDS011;45043;51.068;7.026;2023-07-31T04:30:44;9.50;;;4.73;;
59271;SDS011;45043;51.068;7.026;2023-07-31T04:33:44;7.83;;;4.80;;
59271;SDS011;45043;51.068;7.026;2023-07-31T04:36:45;11.57;;;5.10;;
59271;SDS011;45043;51.068;7.026;2023-07-31T04:39:45;8.70;;;5.23;;
59271;SDS011;45043;51.068;7.026;2023-07-31T04:42:46;10.10;;;5.03;;
59271;SDS011;45043;51.068;7.026;2023-07-31T04:45:46;9.67;;;5.20;;
59271;SDS011;45043;51.068;7.026;2023-07-31T04:48:49;7.17;;;5.20;;
59271;SDS011;45043;51.068;7.026;2023-07-31T04:51:50;10.67;;;5.30;;
59271;SDS011;45043;51.068;7.026;2023-07-31T04:54:50;11.17;;;6.03;;
59271;SDS011;45043;51.068;7.026;2023-07-31T04:57:51;6.30;;;5.20;;
59271;SDS011;45043;51.068;7.026;2023-07-31T05:00:51;8.73;;;5.20;;
59271;SDS011;45043;51.068;7.026;2023-07-31T05:03:52;11.23;;;5.47;;
59271;SDS011;45043;51.068;7.026;2023-07-31T05:06:52;8.00;;;5.70;;
59271;SDS011;45043;51.068;7.026;2023-07-31T05:09:53;8.13;;;4.33;;
59271;SDS011;45043;51.068;7.026;2023-07-31T05:12:53;7.37;;;4.63;;
59271;SDS011;45043;51.068;7.026;2023-07-31T05:15:53;7.67;;;4.53;;
59271;SDS011;45043;51.068;7.026;2023-07-31T05:18:54;11.63;;;6.57;;
59271;SDS011;45043;51.068;7.026;2023-07-31T05:21:54;7.23;;;4.80;;
59271;SDS011;45043;51.068;7.026;2023-07-31T05:24:55;7.70;;;4.33;;
59271;SDS011;45043;51.068;7.026;2023-07-31T05:27:55;7.30;;;4.83;;
59271;SDS011;45043;51.068;7.026;2023-07-31T05:30:59;6.63;;;5.17;;
59271;SDS011;45043;51.068;7.026;2023-07-31T05:34:01;7.23;;;4.60;;
59271;SDS011;45043;51.068;7.026;2023-07-31T05:37:01;7.10;;;4.63;;
59271;SDS011;45043;51.068;7.026;2023-07-31T05:40:02;7.00;;;4.90;;
59271;SDS011;45043;51.068;7.026;2023-07-31T05:43:02;9.23;;;4.70;;
59271;SDS011;45043;51.068;7.026;2023-07-31T05:46:03;5.20;;;4.37;;
59271;SDS011;45043;51.068;7.026;2023-07-31T05:49:03;7.20;;;4.37;;
59271;SDS011;45043;51.068;7.026;2023-07-31T05:52:04;6.33;;;4.93;;
59271;SDS011;45043;51.068;7.026;2023-07-31T05:55:04;8.30;;;4.50;;
59271;SDS011;45043;51.068;7.026;2023-07-31T05:58:05;7.07;;;4.70;;
59271;SDS011;45043;51.068;7.026;2023-07-31T06:01:05;5.70;;;4.37;;
59271;SDS011;45043;51.068;7.026;2023-07-31T06:04:06;6.47;;;4.97;;
59271;SDS011;45043;51.068;7.026;2023-07-31T06:07:07;8.90;;;4.67;;
59271;SDS011;45043;51.068;7.026;2023-07-31T06:10:07;8.57;;;5.37;;
59271;SDS011;45043;51.068;7.026;2023-07-31T06:13:08;5.40;;;4.70;;
59271;SDS011;45043;51.068;7.026;2023-07-31T06:16:09;8.60;;;4.90;;
59271;SDS011;45043;51.068;7.026;2023-07-31T06:19:10;7.90;;;4.90;;
59271;SDS011;45043;51.068;7.026;2023-07-31T06:22:11;6.90;;;4.37;;
59271;SDS011;45043;51.068;7.026;2023-07-31T06:25:11;7.43;;;5.10;;
59271;SDS011;45043;51.068;7.026;2023-07-31T06:28:12;6.17;;;4.80;;
59271;SDS011;45043;51.068;7.026;2023-07-31T06:31:13;8.10;;;5.30;;
59271;SDS011;45043;51.068;7.026;2023-07-31T06:34:13;6.43;;;4.60;;
59271;SDS011;45043;51.068;7.026;2023-07-31T06:37:14;6.90;;;4.77;;
59271;SDS011;45043;51.068;7.026;2023-07-31T06:40:14;7.50;;;4.37;;
59271;SDS011;45043;51.068;7.026;2023-07-31T06:43:24;6.80;;;4.80;;
59271;SDS011;45043;51.068;7.026;2023-07-31T06:46:24;6.87;;;4.60;;
59271;SDS011;45043;51.068;7.026;2023-07-31T06:49:25;7.13;;;4.50;;
59271;SDS011;45043;51.068;7.026;2023-07-31T06:52:25;6.33;;;4.83;;
59271;SDS011;45043;51.068;7.026;2023-07-31T06:55:26;7.53;;;4.80;;
59271;SDS011;45043;51.068;7.026;2023-07-31T06:58:26;8.23;;;4.67;;
59271;SDS011;45043;51.068;7.026;2023-07-31T07:01:27;7.93;;;4.40;;
59271;SDS011;45043;51.068;7.026;2023-07-31T07:04:28;8.33;;;5.20;;
59271;SDS011;45043;51.068;7.026;2023-07-31T07:07:29;7.07;;;4.87;;
59271;SDS011;45043;51.068;7.026;2023-07-31T07:10:29;6.00;;;4.53;;
59271;SDS011;45043;51.068;7.026;2023-07-31T07:13:30;8.30;;;4.73;;
59271;SDS011;45043;51.068;7.026;2023-07-31T07:16:30;6.70;;;4.53;;
59271;SDS011;45043;51.068;7.026;2023-07-31T07:19:31;8.60;;;5.33;;
59271;SDS011;45043;51.068;7.026;2023-07-31T07:22:31;6.43;;;4.53;;
59271;SDS011;45043;51.068;7.026;2023-07-31T07:25:32;7.63;;;4.60;;
59271;SDS011;45043;51.068;7.026;2023-07-31T07:28:32;7.03;;;4.60;;
59271;SDS011;45043;51.068;7.026;2023-07-31T07:31:33;7.80;;;4.47;;
59271;SDS011;45043;51.068;7.026;2023-07-31T07:34:33;7.50;;;4.67;;
59271;SDS011;45043;51.068;7.026;2023-07-31T07:37:33;7.37;;;4.80;;
59271;SDS011;45043;51.068;7.026;2023-07-31T07:40:38;9.87;;;6.33;;
59271;SDS011;45043;51.068;7.026;2023-07-31T07:43:40;8.50;;;4.57;;
59271;SDS011;45043;51.068;7.026;2023-07-31T07:46:41;8.70;;;4.87;;
59271;SDS011;45043;51.068;7.026;2023-07-31T07:49:41;8.77;;;5.70;;
59271;SDS011;45043;51.068;7.026;2023-07-31T07:52:42;8.30;;;5.30;;
59271;SDS011;45043;51.068;7.026;2023-07-31T07:55:43;7.57;;;5.03;;
59271;SDS011;45043;51.068;7.026;2023-07-31T07:58:43;7.53;;;5.97;;
59271;SDS011;45043;51.068;7.026;2023-07-31T08:01:43;9.07;;;5.30;;
59271;SDS011;45043;51.068;7.026;2023-07-31T08:04:44;6.87;;;4.47;;
59271;SDS011;45043;51.068;7.026;2023-07-31T08:07:45;7.93;;;4.57;;
59271;SDS011;45043;51.068;7.026;2023-07-31T08:10:45;7.70;;;5.00;;
59271;SDS011;45043;51.068;7.026;2023-07-31T08:13:46;8.17;;;4.73;;
59271;SDS011;45043;51.068;7.026;2023-07-31T08:16:46;9.53;;;5.03;;
59271;SDS011;45043;51.068;7.026;2023-07-31T08:19:47;8.23;;;5.87;;
59271;SDS011;45043;51.068;7.026;2023-07-31T08:22:48;13.50;;;5.37;;
59271;SDS011;45043;51.068;7.026;2023-07-31T08:25:48;5.43;;;3.53;;
59271;SDS011;45043;51.068;7.026;2023-07-31T08:28:50;6.93;;;4.43;;
59271;SDS011;45043;51.068;7.026;2023-07-31T08:31:51;9.30;;;4.77;;
59271;SDS011;45043;51.068;7.026;2023-07-31T08:34:51;6.13;;;4.00;;
59271;SDS011;45043;51.068;7.026;2023-07-31T08:37:52;6.33;;;4.33;;
59271;SDS011;45043;51.068;7.026;2023-07-31T08:40:53;7.20;;;4.77;;
59271;SDS011;45043;51.068;7.026;2023-07-31T08:43:54;6.47;;;4.57;;
59271;SDS011;45043;51.068;7.026;2023-07-31T08:46:55;8.10;;;4.47;;
59271;SDS011;45043;51.068;7.026;2023-07-31T08:49:56;6.90;;;4.57;;
59271;SDS011;45043;51.068;7.026;2023-07-31T08:52:57;7.53;;;5.60;;
59271;SDS011;45043;51.068;7.026;2023-07-31T08:55:58;7.97;;;4.33;;
59271;SDS011;45043;51.068;7.026;2023-07-31T08:59:00;8.83;;;5.27;;
59271;SDS011;45043;51.068;7.026;2023-07-31T09:02:05;5.80;;;4.47;;
59271;SDS011;45043;51.068;7.026;2023-07-31T09:05:07;7.13;;;4.63;;
59271;SDS011;45043;51.068;7.026;2023-07-31T09:08:09;5.33;;;3.70;;
59271;SDS011;45043;51.068;7.026;2023-07-31T09:11:11;5.13;;;3.63;;
59271;SDS011;45043;51.068;7.026;2023-07-31T09:14:12;5.23;;;3.83;;
59271;SDS011;45043;51.068;7.026;2023-07-31T09:17:15;7.97;;;4.60;;
59271;SDS011;45043;51.068;7.026;2023-07-31T09:20:19;6.00;;;3.97;;
59271;SDS011;45043;51.068;7.026;2023-07-31T09:23:20;6.47;;;3.87;;
59271;SDS011;45043;51.068;7.026;2023-07-31T09:26:28;5.77;;;3.97;;
59271;SDS011;45043;51.068;7.026;2023-07-31T09:29:36;6.10;;;4.00;;
59271;SDS011;45043;51.068;7.026;2023-07-31T09:32:36;7.53;;;3.97;;
59271;SDS011;45043;51.068;7.026;2023-07-31T09:35:38;5.60;;;3.80;;
59271;SDS011;45043;51.068;7.026;2023-07-31T09:38:40;8.77;;;7.43;;
59271;SDS011;45043;51.068;7.026;2023-07-31T09:41:42;9.40;;;7.40;;
59271;SDS011;45043;51.068;7.026;2023-07-31T09:44:44;6.63;;;3.73;;
59271;SDS011;45043;51.068;7.026;2023-07-31T09:47:48;6.07;;;3.60;;
59271;SDS011;45043;51.068;7.026;2023-07-31T09:50:49;6.07;;;4.20;;
59271;SDS011;45043;51.068;7.026;2023-07-31T09:53:49;4.47;;;3.50;;
59271;SDS011;45043;51.068;7.026;2023-07-31T09:56:50;5.30;;;4.17;;
59271;SDS011;45043;51.068;7.026;2023-07-31T09:59:51;8.10;;;4.13;;
59271;SDS011;45043;51.068;7.026;2023-07-31T10:02:53;5.83;;;4.10;;
59271;SDS011;45043;51.068;7.026;2023-07-31T10:05:55;5.47;;;4.17;;
59271;SDS011;45043;51.068;7.026;2023-07-31T10:08:57;6.00;;;3.87;;
59271;SDS011;45043;51.068;7.026;2023-07-31T10:12:02;5.03;;;4.17;;
59271;SDS011;45043;51.068;7.026;2023-07-31T10:15:09;6.53;;;3.63;;
59271;SDS011;45043;51.068;7.026;2023-07-31T10:18:10;4.93;;;3.90;;
59271;SDS011;45043;51.068;7.026;2023-07-31T10:21:12;4.90;;;3.90;;
59271;SDS011;45043;51.068;7.026;2023-07-31T10:24:15;5.40;;;3.90;;
59271;SDS011;45043;51.068;7.026;2023-07-31T10:27:16;7.90;;;4.17;;
59271;SDS011;45043;51.068;7.026;2023-07-31T10:30:17;4.53;;;3.73;;
59271;SDS011;45043;51.068;7.026;2023-07-31T10:33:20;6.23;;;4.10;;
59271;SDS011;45043;51.068;7.026;2023-07-31T10:36:24;5.87;;;4.53;;
59271;SDS011;45043;51.068;7.026;2023-07-31T10:39:35;8.73;;;6.67;;
59271;SDS011;45043;51.068;7.026;2023-07-31T10:42:46;4.97;;;4.00;;
59271;SDS011;45043;51.068;7.026;2023-07-31T10:45:54;9.13;;;3.90;;
59271;SDS011;45043;51.068;7.026;2023-07-31T10:48:58;4.70;;;4.10;;
59271;SDS011;45043;51.068;7.026;2023-07-31T10:52:02;7.57;;;4.80;;
59271;SDS011;45043;51.068;7.026;2023-07-31T10:55:14;5.83;;;3.70;;
59271;SDS011;45043;51.068;7.026;2023-07-31T10:58:15;5.80;;;4.47;;
59271;SDS011;45043;51.068;7.026;2023-07-31T11:01:19;5.37;;;3.53;;
59271;SDS011;45043;51.068;7.026;2023-07-31T11:04:23;10.17;;;5.03;;
59271;SDS011;45043;51.068;7.026;2023-07-31T11:07:25;5.00;;;3.33;;
59271;SDS011;45043;51.068;7.026;2023-07-31T11:10:25;6.50;;;4.63;;
59271;SDS011;45043;51.068;7.026;2023-07-31T11:13:26;6.33;;;3.47;;
59271;SDS011;45043;51.068;7.026;2023-07-31T11:16:27;4.10;;;3.50;;
59271;SDS011;45043;51.068;7.026;2023-07-31T11:19:27;4.40;;;3.00;;
59271;SDS011;45043;51.068;7.026;2023-07-31T11:22:28;4.20;;;3.00;;
59271;SDS011;45043;51.068;7.026;2023-07-31T11:25:30;6.93;;;3.70;;
59271;SDS011;45043;51.068;7.026;2023-07-31T11:28:32;5.70;;;4.43;;
59271;SDS011;45043;51.068;7.026;2023-07-31T11:31:41;6.57;;;3.77;;
59271;SDS011;45043;51.068;7.026;2023-07-31T11:34:53;4.23;;;3.00;;
59271;SDS011;45043;51.068;7.026;2023-07-31T11:37:54;4.23;;;2.70;;
59271;SDS011;45043;51.068;7.026;2023-07-31T11:40:56;3.47;;;2.77;;
59271;SDS011;45043;51.068;7.026;2023-07-31T11:44:01;4.13;;;2.10;;
59271;SDS011;45043;51.068;7.026;2023-07-31T11:47:02;3.43;;;2.00;;
59271;SDS011;45043;51.068;7.026;2023-07-31T11:50:04;1.70;;;1.60;;
59271;SDS011;45043;51.068;7.026;2023-07-31T11:53:07;2.90;;;1.37;;
59271;SDS011;45043;51.068;7.026;2023-07-31T11:56:10;1.50;;;1.40;;
59271;SDS011;45043;51.068;7.026;2023-07-31T11:59:13;1.67;;;1.47;;
59271;SDS011;45043;51.068;7.026;2023-07-31T12:02:14;2.90;;;1.40;;
59271;SDS011;45043;51.068;7.026;2023-07-31T12:05:17;1.53;;;1.30;;
59271;SDS011;45043;51.068;7.026;2023-07-31T12:08:17;1.37;;;1.27;;
59271;SDS011;45043;51.068;7.026;2023-07-31T12:11:21;1.50;;;1.40;;
59271;SDS011;45043;51.068;7.026;2023-07-31T12:14:26;1.47;;;1.30;;
59271;SDS011;45043;51.068;7.026;2023-07-31T12:17:31;1.83;;;1.70;;
59271;SDS011;45043;51.068;7.026;2023-07-31T12:20:31;1.97;;;1.73;;
59271;SDS011;45043;51.068;7.026;2023-07-31T12:23:33;2.63;;;1.80;;
59271;SDS011;45043;51.068;7.026;2023-07-31T12:26:36;1.77;;;1.67;;
59271;SDS011;45043;51.068;7.026;2023-07-31T12:29:37;1.93;;;1.77;;
59271;SDS011;45043;51.068;7.026;2023-07-31T12:32:39;2.07;;;1.80;;
59271;SDS011;45043;51.068;7.026;2023-07-31T12:35:41;3.10;;;1.87;;
59271;SDS011;45043;51.068;7.026;2023-07-31T12:38:44;3.50;;;2.20;;
59271;SDS011;45043;51.068;7.026;2023-07-31T12:41:45;2.27;;;2.07;;
59271;SDS011;45043;51.068;7.026;2023-07-31T12:44:46;3.13;;;2.70;;
59271;SDS011;45043;51.068;7.026;2023-07-31T12:47:50;3.67;;;2.67;;
59271;SDS011;45043;51.068;7.026;2023-07-31T12:50:51;3.03;;;2.73;;
59271;SDS011;45043;51.068;7.026;2023-07-31T12:53:51;3.37;;;2.67;;
59271;SDS011;45043;51.068;7.026;2023-07-31T12:56:52;3.20;;;2.83;;
59271;SDS011;45043;51.068;7.026;2023-07-31T12:59:53;4.30;;;3.10;;
59271;SDS011;45043;51.068;7.026;2023-07-31T13:02:53;3.17;;;2.87;;
59271;SDS011;45043;51.068;7.026;2023-07-31T13:05:55;5.57;;;3.07;;
59271;SDS011;45043;51.068;7.026;2023-07-31T13:08:56;4.70;;;2.93;;
59271;SDS011;45043;51.068;7.026;2023-07-31T13:11:57;3.27;;;2.97;;
59271;SDS011;45043;51.068;7.026;2023-07-31T13:14:57;7.10;;;2.93;;
59271;SDS011;45043;51.068;7.026;2023-07-31T13:17:58;5.63;;;3.67;;
59271;SDS011;45043;51.068;7.026;2023-07-31T13:21:02;3.93;;;3.00;;
59271;SDS011;45043;51.068;7.026;2023-07-31T13:24:03;4.10;;;3.30;;
59271;SDS011;45043;51.068;7.026;2023-07-31T13:27:04;3.57;;;2.50;;
59271;SDS011;45043;51.068;7.026;2023-07-31T13:30:05;3.20;;;2.90;;
59271;SDS011;45043;51.068;7.026;2023-07-31T13:33:07;4.90;;;3.20;;
59271;SDS011;45043;51.068;7.026;2023-07-31T13:36:07;4.53;;;2.80;;
59271;SDS011;45043;51.068;7.026;2023-07-31T13:39:08;3.70;;;2.93;;
59271;SDS011;45043;51.068;7.026;2023-07-31T13:42:09;3.67;;;3.10;;
59271;SDS011;45043;51.068;7.026;2023-07-31T13:45:12;3.53;;;3.20;;
59271;SDS011;45043;51.068;7.026;2023-07-31T13:48:12;2.90;;;2.60;;
59271;SDS011;45043;51.068;7.026;2023-07-31T13:51:13;3.10;;;2.80;;
59271;SDS011;45043;51.068;7.026;2023-07-31T13:54:13;4.07;;;3.10;;
59271;SDS011;45043;51.068;7.026;2023-07-31T13:57:15;5.33;;;4.50;;
59271;SDS011;45043;51.068;7.026;2023-07-31T14:00:16;3.67;;;3.27;;
59271;SDS011;45043;51.068;7.026;2023-07-31T14:03:16;3.17;;;2.87;;
59271;SDS011;45043;51.068;7.026;2023-07-31T14:06:17;4.43;;;3.33;;
59271;SDS011;45043;51.068;7.026;2023-07-31T14:09:17;4.03;;;3.63;;
59271;SDS011;45043;51.068;7.026;2023-07-31T14:12:18;5.80;;;4.40;;
59271;SDS011;45043;51.068;7.026;2023-07-31T14:15:18;5.03;;;4.00;;
59271;SDS011;45043;51.068;7.026;2023-07-31T14:18:19;5.13;;;2.73;;
59271;SDS011;45043;51.068;7.026;2023-07-31T14:21:19;3.27;;;2.97;;
59271;SDS011;45043;51.068;7.026;2023-07-31T14:24:23;3.43;;;2.60;;
59271;SDS011;45043;51.068;7.026;2023-07-31T14:27:24;2.90;;;2.70;;
59271;SDS011;45043;51.068;7.026;2023-07-31T14:30:24;4.07;;;2.93;;
59271;SDS011;45043;51.068;7.026;2023-07-31T14:33:25;3.77;;;2.53;;
59271;SDS011;45043;51.068;7.026;2023-07-31T14:36:25;3.60;;;3.20;;
59271;SDS011;45043;51.068;7.026;2023-07-31T14:39:26;4.03;;;3.00;;
59271;SDS011;45043;51.068;7.026;2023-07-31T14:42:26;3.90;;;2.97;;
59271;SDS011;45043;51.068;7.026;2023-07-31T14:45:27;2.70;;;2.50;;
59271;SDS011;45043;51.068;7.026;2023-07-31T14:48:27;3.67;;;2.43;;
59271;SDS011;45043;51.068;7.026;2023-07-31T14:51:29;3.23;;;2.93;;
59271;SDS011;45043;51.068;7.026;2023-07-31T14:54:29;3.30;;;2.90;;
59271;SDS011;45043;51.068;7.026;2023-07-31T14:57:30;5.07;;;3.40;;
59271;SDS011;45043;51.068;7.026;2023-07-31T15:00:30;3.53;;;3.20;;
59271;SDS011;45043;51.068;7.026;2023-07-31T15:03:31;4.67;;;3.33;;
59271;SDS011;45043;51.068;7.026;2023-07-31T15:06:31;4.70;;;3.47;;
59271;SDS011;45043;51.068;7.026;2023-07-31T15:09:32;6.40;;;3.17;;
59271;SDS011;45043;51.068;7.026;2023-07-31T15:12:32;4.60;;;3.60;;
59271;SDS011;45043;51.068;7.026;2023-07-31T15:15:36;3.67;;;3.20;;
59271;SDS011;45043;51.068;7.026;2023-07-31T15:18:37;3.50;;;3.17;;
59271;SDS011;45043;51.068;7.026;2023-07-31T15:21:37;4.73;;;3.43;;
59271;SDS011;45043;51.068;7.026;2023-07-31T15:24:38;4.80;;;3.57;;
59271;SDS011;45043;51.068;7.026;2023-07-31T15:27:39;5.67;;;4.27;;
59271;SDS011;45043;51.068;7.026;2023-07-31T15:30:39;4.53;;;4.00;;
59271;SDS011;45043;51.068;7.026;2023-07-31T15:33:40;4.93;;;3.70;;
59271;SDS011;45043;51.068;7.026;2023-07-31T15:36:41;4.67;;;3.83;;
59271;SDS011;45043;51.068;7.026;2023-07-31T15:39:41;4.80;;;3.97;;
59271;SDS011;45043;51.068;7.026;2023-07-31T15:42:42;5.00;;;3.87;;
59271;SDS011;45043;51.068;7.026;2023-07-31T15:45:43;3.90;;;3.50;;
59271;SDS011;45043;51.068;7.026;2023-07-31T15:48:44;4.07;;;3.67;;
59271;SDS011;45043;51.068;7.026;2023-07-31T15:51:45;4.17;;;3.50;;
59271;SDS011;45043;51.068;7.026;2023-07-31T15:54:45;4.13;;;3.70;;
59271;SDS011;45043;51.068;7.026;2023-07-31T15:57:46;5.27;;;3.87;;
59271;SDS011;45043;51.068;7.026;2023-07-31T16:00:46;5.63;;;4.20;;
59271;SDS011;45043;51.068;7.026;2023-07-31T16:03:47;5.73;;;3.93;;
59271;SDS011;45043;51.068;7.026;2023-07-31T16:06:49;3.87;;;3.57;;
59271;SDS011;45043;51.068;7.026;2023-07-31T16:09:49;4.77;;;4.07;;
59271;SDS011;45043;51.068;7.026;2023-07-31T16:12:50;5.13;;;4.30;;
59271;SDS011;45043;51.068;7.026;2023-07-31T16:15:50;4.73;;;3.80;;
59271;SDS011;45043;51.068;7.026;2023-07-31T16:18:51;4.50;;;4.10;;
59271;SDS011;45043;51.068;7.026;2023-07-31T16:21:51;5.23;;;4.73;;
59271;SDS011;45043;51.068;7.026;2023-07-31T16:24:52;4.50;;;4.10;;
59271;SDS011;45043;51.068;7.026;2023-07-31T16:27:52;4.20;;;3.80;;
59271;SDS011;45043;51.068;7.026;2023-07-31T16:30:53;4.57;;;3.97;;
59271;SDS011;45043;51.068;7.026;2023-07-31T16:33:53;4.93;;;4.47;;
59271;SDS011;45043;51.068;7.026;2023-07-31T16:36:54;5.37;;;4.73;;
59271;SDS011;45043;51.068;7.026;2023-07-31T16:39:55;6.13;;;5.23;;
59271;SDS011;45043;51.068;7.026;2023-07-31T16:42:56;6.90;;;5.07;;
59271;SDS011;45043;51.068;7.026;2023-07-31T16:45:56;6.53;;;4.50;;
59271;SDS011;45043;51.068;7.026;2023-07-31T16:48:57;5.70;;;3.93;;
59271;SDS011;45043;51.068;7.026;2023-07-31T16:51:57;4.90;;;4.40;;
59271;SDS011;45043;51.068;7.026;2023-07-31T16:54:58;5.03;;;4.43;;
59271;SDS011;45043;51.068;7.026;2023-07-31T16:57:58;3.80;;;3.40;;
59271;SDS011;45043;51.068;7.026;2023-07-31T17:00:59;3.70;;;3.30;;
59271;SDS011;45043;51.068;7.026;2023-07-31T17:04:00;4.43;;;3.43;;
59271;SDS011;45043;51.068;7.026;2023-07-31T17:07:01;3.60;;;3.00;;
59271;SDS011;45043;51.068;7.026;2023-07-31T17:10:01;2.70;;;2.50;;
59271;SDS011;45043;51.068;7.026;2023-07-31T17:13:02;4.63;;;3.10;;
59271;SDS011;45043;51.068;7.026;2023-07-31T17:16:02;3.77;;;3.00;;
59271;SDS011;45043;51.068;7.026;2023-07-31T17:19:03;3.57;;;3.27;;
59271;SDS011;45043;51.068;7.026;2023-07-31T17:22:04;3.63;;;3.17;;
59271;SDS011;45043;51.068;7.026;2023-07-31T17:25:05;4.33;;;3.87;;
59271;SDS011;45043;51.068;7.026;2023-07-31T17:28:06;5.63;;;4.10;;
59271;SDS011;45043;51.068;7.026;2023-07-31T17:31:06;4.17;;;3.53;;
59271;SDS011;45043;51.068;7.026;2023-07-31T17:34:08;7.03;;;4.03;;
59271;SDS011;45043;51.068;7.026;2023-07-31T17:37:09;4.67;;;3.87;;
59271;SDS011;45043;51.068;7.026;2023-07-31T17:40:11;6.07;;;4.50;;
59271;SDS011;45043;51.068;7.026;2023-07-31T17:43:11;4.23;;;3.80;;
59271;SDS011;45043;51.068;7.026;2023-07-31T17:46:12;5.40;;;4.13;;
59271;SDS011;45043;51.068;7.026;2023-07-31T17:49:14;5.70;;;4.67;;
59271;SDS011;45043;51.068;7.026;2023-07-31T17:52:14;5.13;;;4.63;;
59271;SDS011;45043;51.068;7.026;2023-07-31T17:55:14;5.67;;;4.70;;
59271;SDS011;45043;51.068;7.026;2023-07-31T17:58:15;7.07;;;4.53;;
59271;SDS011;45043;51.068;7.026;2023-07-31T18:01:15;5.37;;;4.87;;
59271;SDS011;45043;51.068;7.026;2023-07-31T18:04:16;7.83;;;5.60;;
59271;SDS011;45043;51.068;7.026;2023-07-31T18:07:19;8.30;;;5.87;;
59271;SDS011;45043;51.068;7.026;2023-07-31T18:10:20;7.30;;;5.80;;
59271;SDS011;45043;51.068;7.026;2023-07-31T18:13:20;8.50;;;5.67;;
59271;SDS011;45043;51.068;7.026;2023-07-31T18:16:20;7.30;;;6.00;;
59271;SDS011;45043;51.068;7.026;2023-07-31T18:19:21;9.53;;;6.27;;